sensor_id;sensor_type;location;lat;lon;timestamp;P1;durP1;ratioP1;P2;durP2;ratioP2
27383;SDS011;14851;51.166;4.760;2023-12-22T00:00:49;16.48;;;3.15;;
27383;SDS011;14851;51.166;4.760;2023-12-22T00:03:16;16.30;;;3.17;;
27383;SDS011;14851;51.166;4.760;2023-12-22T00:05:42;14.23;;;3.22;;
27383;SDS011;14851;51.166;4.760;2023-12-22T00:08:08;12.18;;;3.00;;
27383;SDS011;14851;51.166;4.760;2023-12-22T00:10:34;13.75;;;3.05;;
27383;SDS011;14851;51.166;4.760;2023-12-22T00:13:00;15.57;;;3.80;;
27383;SDS011;14851;51.166;4.760;2023-12-22T00:15:26;19.40;;;3.72;;
27383;SDS011;14851;51.166;4.760;2023-12-22T00:17:52;19.70;;;3.65;;
27383;SDS011;14851;51.166;4.760;2023-12-22T00:20:18;20.02;;;3.58;;
27383;SDS011;14851;51.166;4.760;2023-12-22T00:22:46;10.45;;;2.60;;
27383;SDS011;14851;51.166;4.760;2023-12-22T00:25:15;19.40;;;3.70;;
27383;SDS011;14851;51.166;4.760;2023-12-22T00:27:40;21.27;;;3.90;;
27383;SDS011;14851;51.166;4.760;2023-12-22T00:30:07;21.95;;;3.78;;
27383;SDS011;14851;51.166;4.760;2023-12-22T00:32:36;17.42;;;3.78;;
27383;SDS011;14851;51.166;4.760;2023-12-22T00:35:04;19.50;;;3.38;;
27383;SDS011;14851;51.166;4.760;2023-12-22T00:37:31;19.88;;;3.15;;
27383;SDS011;14851;51.166;4.760;2023-12-22T00:39:57;14.75;;;3.60;;
27383;SDS011;14851;51.166;4.760;2023-12-22T00:42:24;20.63;;;3.58;;
27383;SDS011;14851;51.166;4.760;2023-12-22T00:44:51;15.07;;;3.63;;
27383;SDS011;14851;51.166;4.760;2023-12-22T00:47:17;12.50;;;3.28;;
27383;SDS011;14851;51.166;4.760;2023-12-22T00:49:43;17.42;;;2.72;;
27383;SDS011;14851;51.166;4.760;2023-12-22T00:52:09;14.07;;;3.55;;
27383;SDS011;14851;51.166;4.760;2023-12-22T00:54:36;13.00;;;2.67;;
27383;SDS011;14851;51.166;4.760;2023-12-22T00:57:02;11.27;;;2.22;;
27383;SDS011;14851;51.166;4.760;2023-12-22T00:59:33;11.07;;;2.55;;
27383;SDS011;14851;51.166;4.760;2023-12-22T01:02:01;16.10;;;3.47;;
27383;SDS011;14851;51.166;4.760;2023-12-22T01:04:28;18.83;;;2.60;;
27383;SDS011;14851;51.166;4.760;2023-12-22T01:06:53;18.30;;;3.17;;
27383;SDS011;14851;51.166;4.760;2023-12-22T01:09:22;15.45;;;3.17;;
27383;SDS011;14851;51.166;4.760;2023-12-22T01:11:47;22.00;;;4.00;;
27383;SDS011;14851;51.166;4.760;2023-12-22T01:14:14;9.20;;;2.50;;
27383;SDS011;14851;51.166;4.760;2023-12-22T01:16:40;18.45;;;4.28;;
27383;SDS011;14851;51.166;4.760;2023-12-22T01:19:06;15.63;;;3.10;;
27383;SDS011;14851;51.166;4.760;2023-12-22T01:21:32;20.63;;;3.28;;
27383;SDS011;14851;51.166;4.760;2023-12-22T01:23:58;17.92;;;3.60;;
27383;SDS011;14851;51.166;4.760;2023-12-22T01:26:24;19.50;;;3.63;;
27383;SDS011;14851;51.166;4.760;2023-12-22T01:28:56;17.90;;;4.05;;
27383;SDS011;14851;51.166;4.760;2023-12-22T01:31:23;17.85;;;4.38;;
27383;SDS011;14851;51.166;4.760;2023-12-22T01:33:49;16.70;;;3.08;;
27383;SDS011;14851;51.166;4.760;2023-12-22T01:36:15;21.50;;;3.65;;
27383;SDS011;14851;51.166;4.760;2023-12-22T01:38:41;16.30;;;3.13;;
27383;SDS011;14851;51.166;4.760;2023-12-22T01:41:07;17.17;;;3.28;;
27383;SDS011;14851;51.166;4.760;2023-12-22T01:43:34;18.15;;;3.35;;
27383;SDS011;14851;51.166;4.760;2023-12-22T01:45:59;15.40;;;2.90;;
27383;SDS011;14851;51.166;4.760;2023-12-22T01:48:27;14.25;;;3.25;;
27383;SDS011;14851;51.166;4.760;2023-12-22T01:50:54;14.73;;;2.85;;
27383;SDS011;14851;51.166;4.760;2023-12-22T01:53:21;19.30;;;3.95;;
27383;SDS011;14851;51.166;4.760;2023-12-22T01:55:54;18.23;;;3.45;;
27383;SDS011;14851;51.166;4.760;2023-12-22T01:58:23;22.30;;;3.80;;
27383;SDS011;14851;51.166;4.760;2023-12-22T02:00:51;19.38;;;3.88;;
27383;SDS011;14851;51.166;4.760;2023-12-22T02:05:47;19.77;;;3.70;;
27383;SDS011;14851;51.166;4.760;2023-12-22T02:08:13;21.42;;;3.40;;
27383;SDS011;14851;51.166;4.760;2023-12-22T02:10:43;18.15;;;3.72;;
27383;SDS011;14851;51.166;4.760;2023-12-22T02:13:10;23.23;;;4.40;;
27383;SDS011;14851;51.166;4.760;2023-12-22T02:15:42;17.92;;;3.47;;
27383;SDS011;14851;51.166;4.760;2023-12-22T02:20:38;19.98;;;3.63;;
27383;SDS011;14851;51.166;4.760;2023-12-22T02:23:05;19.48;;;3.28;;
27383;SDS011;14851;51.166;4.760;2023-12-22T02:25:31;20.48;;;4.18;;
27383;SDS011;14851;51.166;4.760;2023-12-22T02:28:10;29.42;;;4.47;;
27383;SDS011;14851;51.166;4.760;2023-12-22T02:33:19;20.50;;;3.53;;
27383;SDS011;14851;51.166;4.760;2023-12-22T02:35:49;16.57;;;3.40;;
27383;SDS011;14851;51.166;4.760;2023-12-22T02:38:20;17.73;;;3.38;;
27383;SDS011;14851;51.166;4.760;2023-12-22T02:40:46;15.82;;;3.35;;
27383;SDS011;14851;51.166;4.760;2023-12-22T02:43:13;19.42;;;3.72;;
27383;SDS011;14851;51.166;4.760;2023-12-22T02:45:39;18.00;;;3.75;;
27383;SDS011;14851;51.166;4.760;2023-12-22T02:48:06;18.48;;;4.20;;
27383;SDS011;14851;51.166;4.760;2023-12-22T02:50:32;19.00;;;4.15;;
27383;SDS011;14851;51.166;4.760;2023-12-22T02:52:58;18.88;;;3.80;;
27383;SDS011;14851;51.166;4.760;2023-12-22T02:55:24;23.38;;;4.20;;
27383;SDS011;14851;51.166;4.760;2023-12-22T02:57:50;18.13;;;3.63;;
27383;SDS011;14851;51.166;4.760;2023-12-22T03:00:16;17.13;;;3.30;;
27383;SDS011;14851;51.166;4.760;2023-12-22T03:02:43;15.20;;;3.30;;
27383;SDS011;14851;51.166;4.760;2023-12-22T03:05:09;21.38;;;3.80;;
27383;SDS011;14851;51.166;4.760;2023-12-22T03:07:35;17.80;;;3.75;;
27383;SDS011;14851;51.166;4.760;2023-12-22T03:10:01;18.25;;;3.78;;
27383;SDS011;14851;51.166;4.760;2023-12-22T03:12:28;18.25;;;3.38;;
27383;SDS011;14851;51.166;4.760;2023-12-22T03:14:54;18.27;;;3.50;;
27383;SDS011;14851;51.166;4.760;2023-12-22T03:17:20;16.70;;;2.88;;
27383;SDS011;14851;51.166;4.760;2023-12-22T03:19:46;16.00;;;3.50;;
27383;SDS011;14851;51.166;4.760;2023-12-22T03:22:12;16.20;;;3.75;;
27383;SDS011;14851;51.166;4.760;2023-12-22T03:24:38;14.15;;;2.83;;
27383;SDS011;14851;51.166;4.760;2023-12-22T03:27:05;14.07;;;3.28;;
27383;SDS011;14851;51.166;4.760;2023-12-22T03:29:31;19.42;;;3.83;;
27383;SDS011;14851;51.166;4.760;2023-12-22T03:31:58;19.60;;;3.90;;
27383;SDS011;14851;51.166;4.760;2023-12-22T03:34:25;14.25;;;3.15;;
27383;SDS011;14851;51.166;4.760;2023-12-22T03:36:51;21.15;;;4.55;;
27383;SDS011;14851;51.166;4.760;2023-12-22T03:39:37;17.15;;;3.42;;
27383;SDS011;14851;51.166;4.760;2023-12-22T03:42:06;21.10;;;3.47;;
27383;SDS011;14851;51.166;4.760;2023-12-22T03:44:32;25.50;;;5.18;;
27383;SDS011;14851;51.166;4.760;2023-12-22T03:46:58;16.83;;;3.13;;
27383;SDS011;14851;51.166;4.760;2023-12-22T03:49:27;19.98;;;3.65;;
27383;SDS011;14851;51.166;4.760;2023-12-22T03:51:57;22.70;;;4.88;;
27383;SDS011;14851;51.166;4.760;2023-12-22T03:54:23;19.23;;;4.20;;
27383;SDS011;14851;51.166;4.760;2023-12-22T03:56:53;18.08;;;3.72;;
27383;SDS011;14851;51.166;4.760;2023-12-22T03:59:19;19.27;;;4.00;;
27383;SDS011;14851;51.166;4.760;2023-12-22T04:01:50;31.80;;;4.97;;
27383;SDS011;14851;51.166;4.760;2023-12-22T04:04:18;24.05;;;4.25;;
27383;SDS011;14851;51.166;4.760;2023-12-22T04:06:52;22.35;;;4.32;;
27383;SDS011;14851;51.166;4.760;2023-12-22T04:09:21;22.98;;;3.72;;
27383;SDS011;14851;51.166;4.760;2023-12-22T04:11:47;24.60;;;4.88;;
27383;SDS011;14851;51.166;4.760;2023-12-22T04:14:13;27.02;;;4.80;;
27383;SDS011;14851;51.166;4.760;2023-12-22T04:16:45;22.42;;;4.88;;
27383;SDS011;14851;51.166;4.760;2023-12-22T04:19:12;21.67;;;3.80;;
27383;SDS011;14851;51.166;4.760;2023-12-22T04:21:39;27.73;;;5.25;;
27383;SDS011;14851;51.166;4.760;2023-12-22T04:24:05;23.45;;;4.60;;
27383;SDS011;14851;51.166;4.760;2023-12-22T04:26:35;24.90;;;5.20;;
27383;SDS011;14851;51.166;4.760;2023-12-22T04:29:02;25.70;;;5.47;;
27383;SDS011;14851;51.166;4.760;2023-12-22T04:31:28;25.08;;;5.28;;
27383;SDS011;14851;51.166;4.760;2023-12-22T04:33:54;25.42;;;5.20;;
27383;SDS011;14851;51.166;4.760;2023-12-22T04:36:21;24.42;;;4.65;;
27383;SDS011;14851;51.166;4.760;2023-12-22T04:38:47;22.58;;;4.88;;
27383;SDS011;14851;51.166;4.760;2023-12-22T04:41:13;25.60;;;5.15;;
27383;SDS011;14851;51.166;4.760;2023-12-22T04:43:39;27.10;;;6.55;;
27383;SDS011;14851;51.166;4.760;2023-12-22T04:46:05;25.30;;;4.70;;
27383;SDS011;14851;51.166;4.760;2023-12-22T04:48:31;22.65;;;5.18;;
27383;SDS011;14851;51.166;4.760;2023-12-22T04:50:58;24.63;;;4.97;;
27383;SDS011;14851;51.166;4.760;2023-12-22T04:53:24;22.83;;;4.55;;
27383;SDS011;14851;51.166;4.760;2023-12-22T04:55:51;23.05;;;4.25;;
27383;SDS011;14851;51.166;4.760;2023-12-22T04:58:17;18.08;;;4.22;;
27383;SDS011;14851;51.166;4.760;2023-12-22T05:00:43;22.98;;;4.43;;
27383;SDS011;14851;51.166;4.760;2023-12-22T05:03:11;26.83;;;4.90;;
27383;SDS011;14851;51.166;4.760;2023-12-22T05:05:37;22.40;;;5.32;;
27383;SDS011;14851;51.166;4.760;2023-12-22T05:08:03;19.52;;;6.22;;
27383;SDS011;14851;51.166;4.760;2023-12-22T05:10:30;25.52;;;5.28;;
27383;SDS011;14851;51.166;4.760;2023-12-22T05:12:56;26.63;;;4.95;;
27383;SDS011;14851;51.166;4.760;2023-12-22T05:15:22;22.77;;;4.97;;
27383;SDS011;14851;51.166;4.760;2023-12-22T05:17:48;27.80;;;5.82;;
27383;SDS011;14851;51.166;4.760;2023-12-22T05:20:15;29.88;;;5.93;;
27383;SDS011;14851;51.166;4.760;2023-12-22T05:22:42;29.67;;;5.93;;
27383;SDS011;14851;51.166;4.760;2023-12-22T05:25:08;29.77;;;5.90;;
27383;SDS011;14851;51.166;4.760;2023-12-22T05:27:38;24.00;;;5.28;;
27383;SDS011;14851;51.166;4.760;2023-12-22T05:30:07;27.42;;;6.05;;
27383;SDS011;14851;51.166;4.760;2023-12-22T05:32:33;28.02;;;5.25;;
27383;SDS011;14851;51.166;4.760;2023-12-22T05:35:00;29.20;;;5.40;;
27383;SDS011;14851;51.166;4.760;2023-12-22T05:37:26;26.00;;;5.85;;
27383;SDS011;14851;51.166;4.760;2023-12-22T05:39:55;32.88;;;6.32;;
27383;SDS011;14851;51.166;4.760;2023-12-22T05:42:21;35.65;;;6.43;;
27383;SDS011;14851;51.166;4.760;2023-12-22T05:44:47;30.42;;;5.43;;
27383;SDS011;14851;51.166;4.760;2023-12-22T05:47:15;35.33;;;6.47;;
27383;SDS011;14851;51.166;4.760;2023-12-22T05:49:42;30.83;;;6.03;;
27383;SDS011;14851;51.166;4.760;2023-12-22T05:52:08;30.08;;;5.82;;
27383;SDS011;14851;51.166;4.760;2023-12-22T05:54:35;28.83;;;5.90;;
27383;SDS011;14851;51.166;4.760;2023-12-22T05:57:03;31.48;;;6.95;;
27383;SDS011;14851;51.166;4.760;2023-12-22T05:59:31;33.78;;;6.05;;
27383;SDS011;14851;51.166;4.760;2023-12-22T06:01:58;29.48;;;5.65;;
27383;SDS011;14851;51.166;4.760;2023-12-22T06:04:28;25.17;;;5.05;;
27383;SDS011;14851;51.166;4.760;2023-12-22T06:06:54;29.02;;;6.03;;
27383;SDS011;14851;51.166;4.760;2023-12-22T06:09:20;26.48;;;5.32;;
27383;SDS011;14851;51.166;4.760;2023-12-22T06:11:50;30.17;;;6.00;;
27383;SDS011;14851;51.166;4.760;2023-12-22T06:14:19;27.55;;;4.93;;
27383;SDS011;14851;51.166;4.760;2023-12-22T06:16:45;30.85;;;5.97;;
27383;SDS011;14851;51.166;4.760;2023-12-22T06:19:12;27.23;;;5.68;;
27383;SDS011;14851;51.166;4.760;2023-12-22T06:21:41;30.25;;;5.60;;
27383;SDS011;14851;51.166;4.760;2023-12-22T06:24:13;28.15;;;5.65;;
27383;SDS011;14851;51.166;4.760;2023-12-22T06:26:40;30.27;;;5.90;;
27383;SDS011;14851;51.166;4.760;2023-12-22T06:29:07;24.73;;;6.68;;
27383;SDS011;14851;51.166;4.760;2023-12-22T06:31:35;28.50;;;6.95;;
27383;SDS011;14851;51.166;4.760;2023-12-22T06:34:03;30.88;;;5.65;;
27383;SDS011;14851;51.166;4.760;2023-12-22T06:36:30;35.03;;;6.25;;
27383;SDS011;14851;51.166;4.760;2023-12-22T06:38:56;28.35;;;5.72;;
27383;SDS011;14851;51.166;4.760;2023-12-22T06:41:24;27.98;;;4.75;;
27383;SDS011;14851;51.166;4.760;2023-12-22T06:43:52;31.00;;;5.75;;
27383;SDS011;14851;51.166;4.760;2023-12-22T06:46:18;25.08;;;5.55;;
27383;SDS011;14851;51.166;4.760;2023-12-22T06:48:47;28.35;;;6.05;;
27383;SDS011;14851;51.166;4.760;2023-12-22T06:53:57;23.00;;;4.50;;
27383;SDS011;14851;51.166;4.760;2023-12-22T06:56:26;27.15;;;5.22;;
27383;SDS011;14851;51.166;4.760;2023-12-22T06:58:54;19.90;;;4.55;;
27383;SDS011;14851;51.166;4.760;2023-12-22T07:01:27;25.48;;;4.35;;
27383;SDS011;14851;51.166;4.760;2023-12-22T07:03:53;21.60;;;5.45;;
27383;SDS011;14851;51.166;4.760;2023-12-22T07:06:20;23.20;;;4.00;;
27383;SDS011;14851;51.166;4.760;2023-12-22T07:11:39;16.45;;;3.90;;
27383;SDS011;14851;51.166;4.760;2023-12-22T07:14:06;20.48;;;3.70;;
27383;SDS011;14851;51.166;4.760;2023-12-22T07:16:33;18.85;;;3.88;;
27383;SDS011;14851;51.166;4.760;2023-12-22T07:19:01;19.48;;;3.70;;
27383;SDS011;14851;51.166;4.760;2023-12-22T07:21:28;16.33;;;3.45;;
27383;SDS011;14851;51.166;4.760;2023-12-22T07:23:54;18.17;;;4.32;;
27383;SDS011;14851;51.166;4.760;2023-12-22T07:26:23;21.48;;;3.40;;
27383;SDS011;14851;51.166;4.760;2023-12-22T07:28:54;13.93;;;3.10;;
27383;SDS011;14851;51.166;4.760;2023-12-22T07:31:20;14.30;;;3.15;;
27383;SDS011;14851;51.166;4.760;2023-12-22T07:33:46;10.00;;;2.90;;
27383;SDS011;14851;51.166;4.760;2023-12-22T07:36:13;19.38;;;3.20;;
27383;SDS011;14851;51.166;4.760;2023-12-22T07:38:39;16.25;;;3.70;;
27383;SDS011;14851;51.166;4.760;2023-12-22T07:41:06;13.73;;;3.00;;
27383;SDS011;14851;51.166;4.760;2023-12-22T07:43:32;17.38;;;3.22;;
27383;SDS011;14851;51.166;4.760;2023-12-22T07:45:59;12.60;;;3.55;;
27383;SDS011;14851;51.166;4.760;2023-12-22T07:48:25;13.40;;;3.08;;
27383;SDS011;14851;51.166;4.760;2023-12-22T07:50:51;19.85;;;3.08;;
27383;SDS011;14851;51.166;4.760;2023-12-22T07:53:17;18.35;;;2.90;;
27383;SDS011;14851;51.166;4.760;2023-12-22T07:55:43;12.82;;;2.80;;
27383;SDS011;14851;51.166;4.760;2023-12-22T07:58:13;14.75;;;2.53;;
27383;SDS011;14851;51.166;4.760;2023-12-22T08:00:39;18.50;;;3.38;;
27383;SDS011;14851;51.166;4.760;2023-12-22T08:03:07;17.73;;;3.20;;
27383;SDS011;14851;51.166;4.760;2023-12-22T08:05:35;14.30;;;2.65;;
27383;SDS011;14851;51.166;4.760;2023-12-22T08:08:01;19.08;;;4.22;;
27383;SDS011;14851;51.166;4.760;2023-12-22T08:10:27;13.85;;;2.88;;
27383;SDS011;14851;51.166;4.760;2023-12-22T08:12:53;19.85;;;3.72;;
27383;SDS011;14851;51.166;4.760;2023-12-22T08:15:19;17.05;;;3.92;;
27383;SDS011;14851;51.166;4.760;2023-12-22T08:17:49;19.83;;;4.57;;
27383;SDS011;14851;51.166;4.760;2023-12-22T08:20:17;16.90;;;3.88;;
27383;SDS011;14851;51.166;4.760;2023-12-22T08:22:48;18.90;;;4.70;;
27383;SDS011;14851;51.166;4.760;2023-12-22T08:25:15;13.80;;;4.22;;
27383;SDS011;14851;51.166;4.760;2023-12-22T08:27:42;18.58;;;4.30;;
27383;SDS011;14851;51.166;4.760;2023-12-22T08:30:09;13.95;;;3.95;;
27383;SDS011;14851;51.166;4.760;2023-12-22T08:32:35;16.00;;;3.95;;
27383;SDS011;14851;51.166;4.760;2023-12-22T08:35:02;15.52;;;4.45;;
27383;SDS011;14851;51.166;4.760;2023-12-22T08:37:30;13.80;;;3.80;;
27383;SDS011;14851;51.166;4.760;2023-12-22T08:39:56;19.90;;;3.42;;
27383;SDS011;14851;51.166;4.760;2023-12-22T08:42:23;12.30;;;3.13;;
27383;SDS011;14851;51.166;4.760;2023-12-22T08:44:56;11.40;;;3.03;;
27383;SDS011;14851;51.166;4.760;2023-12-22T08:47:22;15.05;;;3.30;;
27383;SDS011;14851;51.166;4.760;2023-12-22T08:49:48;10.38;;;2.95;;
27383;SDS011;14851;51.166;4.760;2023-12-22T08:52:14;8.20;;;3.40;;
27383;SDS011;14851;51.166;4.760;2023-12-22T08:54:41;12.27;;;3.13;;
27383;SDS011;14851;51.166;4.760;2023-12-22T08:57:07;13.70;;;4.40;;
27383;SDS011;14851;51.166;4.760;2023-12-22T08:59:34;9.98;;;4.00;;
27383;SDS011;14851;51.166;4.760;2023-12-22T09:02:00;8.73;;;3.80;;
27383;SDS011;14851;51.166;4.760;2023-12-22T09:04:26;10.02;;;3.53;;
27383;SDS011;14851;51.166;4.760;2023-12-22T09:06:53;7.78;;;3.10;;
27383;SDS011;14851;51.166;4.760;2023-12-22T09:09:19;8.05;;;3.05;;
27383;SDS011;14851;51.166;4.760;2023-12-22T09:11:47;7.60;;;3.40;;
27383;SDS011;14851;51.166;4.760;2023-12-22T09:14:13;6.97;;;2.83;;
27383;SDS011;14851;51.166;4.760;2023-12-22T09:16:39;9.80;;;3.30;;
27383;SDS011;14851;51.166;4.760;2023-12-22T09:19:06;7.68;;;2.70;;
27383;SDS011;14851;51.166;4.760;2023-12-22T09:21:32;9.02;;;2.53;;
27383;SDS011;14851;51.166;4.760;2023-12-22T09:23:58;6.13;;;2.20;;
27383;SDS011;14851;51.166;4.760;2023-12-22T09:26:24;4.88;;;1.77;;
27383;SDS011;14851;51.166;4.760;2023-12-22T09:28:51;5.68;;;1.60;;
27383;SDS011;14851;51.166;4.760;2023-12-22T09:31:17;6.90;;;2.20;;
27383;SDS011;14851;51.166;4.760;2023-12-22T09:33:43;6.20;;;1.92;;
27383;SDS011;14851;51.166;4.760;2023-12-22T09:36:10;5.85;;;2.20;;
27383;SDS011;14851;51.166;4.760;2023-12-22T09:38:37;5.45;;;2.03;;
27383;SDS011;14851;51.166;4.760;2023-12-22T09:41:03;7.95;;;2.20;;
27383;SDS011;14851;51.166;4.760;2023-12-22T09:43:30;7.30;;;2.03;;
27383;SDS011;14851;51.166;4.760;2023-12-22T09:46:00;4.70;;;1.98;;
27383;SDS011;14851;51.166;4.760;2023-12-22T09:48:28;5.43;;;1.20;;
27383;SDS011;14851;51.166;4.760;2023-12-22T09:50:55;4.03;;;1.55;;
27383;SDS011;14851;51.166;4.760;2023-12-22T09:53:22;4.43;;;1.60;;
27383;SDS011;14851;51.166;4.760;2023-12-22T09:55:50;4.22;;;1.35;;
27383;SDS011;14851;51.166;4.760;2023-12-22T09:58:19;4.93;;;1.20;;
27383;SDS011;14851;51.166;4.760;2023-12-22T10:00:45;3.13;;;1.02;;
27383;SDS011;14851;51.166;4.760;2023-12-22T10:03:16;4.03;;;1.27;;
27383;SDS011;14851;51.166;4.760;2023-12-22T10:05:44;5.30;;;1.42;;
27383;SDS011;14851;51.166;4.760;2023-12-22T10:08:11;7.07;;;1.60;;
27383;SDS011;14851;51.166;4.760;2023-12-22T10:10:39;4.85;;;1.20;;
27383;SDS011;14851;51.166;4.760;2023-12-22T10:13:05;6.20;;;1.42;;
27383;SDS011;14851;51.166;4.760;2023-12-22T10:15:36;9.23;;;1.73;;
27383;SDS011;14851;51.166;4.760;2023-12-22T10:18:08;8.18;;;1.42;;
27383;SDS011;14851;51.166;4.760;2023-12-22T10:20:35;6.80;;;1.48;;
27383;SDS011;14851;51.166;4.760;2023-12-22T10:23:04;11.55;;;1.88;;
27383;SDS011;14851;51.166;4.760;2023-12-22T10:25:31;9.10;;;1.38;;
27383;SDS011;14851;51.166;4.760;2023-12-22T10:27:57;5.10;;;1.30;;
27383;SDS011;14851;51.166;4.760;2023-12-22T10:30:24;7.18;;;1.33;;
27383;SDS011;14851;51.166;4.760;2023-12-22T10:32:51;7.72;;;1.83;;
27383;SDS011;14851;51.166;4.760;2023-12-22T10:35:17;5.30;;;1.20;;
27383;SDS011;14851;51.166;4.760;2023-12-22T10:37:45;6.45;;;1.30;;
27383;SDS011;14851;51.166;4.760;2023-12-22T10:40:12;5.63;;;1.25;;
27383;SDS011;14851;51.166;4.760;2023-12-22T10:42:42;6.25;;;0.90;;
27383;SDS011;14851;51.166;4.760;2023-12-22T10:45:08;6.10;;;1.50;;
27383;SDS011;14851;51.166;4.760;2023-12-22T10:47:34;6.28;;;1.20;;
27383;SDS011;14851;51.166;4.760;2023-12-22T10:50:03;9.10;;;0.95;;
27383;SDS011;14851;51.166;4.760;2023-12-22T10:52:35;9.20;;;2.15;;
27383;SDS011;14851;51.166;4.760;2023-12-22T10:55:01;6.53;;;1.67;;
27383;SDS011;14851;51.166;4.760;2023-12-22T10:57:28;7.85;;;1.30;;
27383;SDS011;14851;51.166;4.760;2023-12-22T10:59:57;5.93;;;0.98;;
27383;SDS011;14851;51.166;4.760;2023-12-22T11:02:26;5.85;;;1.20;;
27383;SDS011;14851;51.166;4.760;2023-12-22T11:05:03;8.02;;;1.20;;
27383;SDS011;14851;51.166;4.760;2023-12-22T11:07:35;6.10;;;1.00;;
27383;SDS011;14851;51.166;4.760;2023-12-22T11:10:03;7.43;;;1.40;;
27383;SDS011;14851;51.166;4.760;2023-12-22T11:12:35;5.78;;;1.10;;
27383;SDS011;14851;51.166;4.760;2023-12-22T11:15:02;5.55;;;1.00;;
27383;SDS011;14851;51.166;4.760;2023-12-22T11:17:33;9.05;;;1.20;;
27383;SDS011;14851;51.166;4.760;2023-12-22T11:20:05;7.15;;;1.40;;
27383;SDS011;14851;51.166;4.760;2023-12-22T11:22:34;8.93;;;1.40;;
27383;SDS011;14851;51.166;4.760;2023-12-22T11:25:03;8.77;;;1.40;;
27383;SDS011;14851;51.166;4.760;2023-12-22T11:27:33;8.70;;;1.50;;
27383;SDS011;14851;51.166;4.760;2023-12-22T11:30:00;8.60;;;1.17;;
27383;SDS011;14851;51.166;4.760;2023-12-22T11:32:28;7.30;;;1.30;;
27383;SDS011;14851;51.166;4.760;2023-12-22T11:34:55;5.97;;;0.95;;
27383;SDS011;14851;51.166;4.760;2023-12-22T11:37:27;9.30;;;1.38;;
27383;SDS011;14851;51.166;4.760;2023-12-22T11:39:57;5.97;;;1.10;;
27383;SDS011;14851;51.166;4.760;2023-12-22T11:42:31;4.55;;;1.02;;
27383;SDS011;14851;51.166;4.760;2023-12-22T11:45:04;11.07;;;1.77;;
27383;SDS011;14851;51.166;4.760;2023-12-22T11:47:31;7.32;;;1.30;;
27383;SDS011;14851;51.166;4.760;2023-12-22T11:49:57;9.73;;;1.63;;
27383;SDS011;14851;51.166;4.760;2023-12-22T11:52:25;5.82;;;1.20;;
27383;SDS011;14851;51.166;4.760;2023-12-22T11:54:55;7.55;;;1.35;;
27383;SDS011;14851;51.166;4.760;2023-12-22T11:57:32;7.63;;;1.73;;
27383;SDS011;14851;51.166;4.760;2023-12-22T12:02:39;8.45;;;1.83;;
27383;SDS011;14851;51.166;4.760;2023-12-22T12:05:09;7.22;;;1.35;;
27383;SDS011;14851;51.166;4.760;2023-12-22T12:07:45;9.32;;;1.70;;
27383;SDS011;14851;51.166;4.760;2023-12-22T12:13:10;6.80;;;1.02;;
27383;SDS011;14851;51.166;4.760;2023-12-22T12:15:38;6.70;;;1.10;;
27383;SDS011;14851;51.166;4.760;2023-12-22T12:18:04;9.45;;;1.50;;
27383;SDS011;14851;51.166;4.760;2023-12-22T12:20:33;8.05;;;1.10;;
27383;SDS011;14851;51.166;4.760;2023-12-22T12:23:03;4.10;;;1.10;;
27383;SDS011;14851;51.166;4.760;2023-12-22T12:25:32;5.35;;;1.40;;
27383;SDS011;14851;51.166;4.760;2023-12-22T12:28:05;7.63;;;1.25;;
27383;SDS011;14851;51.166;4.760;2023-12-22T12:30:40;6.40;;;1.00;;
27383;SDS011;14851;51.166;4.760;2023-12-22T12:33:12;5.80;;;1.00;;
27383;SDS011;14851;51.166;4.760;2023-12-22T12:35:39;7.95;;;1.65;;
27383;SDS011;14851;51.166;4.760;2023-12-22T12:38:09;11.20;;;1.80;;
27383;SDS011;14851;51.166;4.760;2023-12-22T12:40:35;8.45;;;1.27;;
27383;SDS011;14851;51.166;4.760;2023-12-22T12:43:07;10.75;;;1.50;;
27383;SDS011;14851;51.166;4.760;2023-12-22T12:45:33;9.02;;;2.08;;
27383;SDS011;14851;51.166;4.760;2023-12-22T12:48:03;5.88;;;1.08;;
27383;SDS011;14851;51.166;4.760;2023-12-22T12:50:29;9.20;;;1.30;;
27383;SDS011;14851;51.166;4.760;2023-12-22T12:53:02;6.50;;;1.65;;
27383;SDS011;14851;51.166;4.760;2023-12-22T12:55:30;5.55;;;1.10;;
27383;SDS011;14851;51.166;4.760;2023-12-22T12:57:57;8.43;;;1.10;;
27383;SDS011;14851;51.166;4.760;2023-12-22T13:02:51;4.55;;;1.40;;
27383;SDS011;14851;51.166;4.760;2023-12-22T13:05:23;5.82;;;1.35;;
27383;SDS011;14851;51.166;4.760;2023-12-22T13:07:51;5.20;;;1.08;;
27383;SDS011;14851;51.166;4.760;2023-12-22T13:10:24;6.40;;;1.13;;
27383;SDS011;14851;51.166;4.760;2023-12-22T13:12:51;6.20;;;1.40;;
27383;SDS011;14851;51.166;4.760;2023-12-22T13:15:20;5.10;;;1.10;;
27383;SDS011;14851;51.166;4.760;2023-12-22T13:17:47;9.90;;;1.85;;
27383;SDS011;14851;51.166;4.760;2023-12-22T13:20:13;7.18;;;1.23;;
27383;SDS011;14851;51.166;4.760;2023-12-22T13:22:40;5.32;;;1.30;;
27383;SDS011;14851;51.166;4.760;2023-12-22T13:25:07;7.85;;;1.20;;
27383;SDS011;14851;51.166;4.760;2023-12-22T13:27:52;7.10;;;1.20;;
27383;SDS011;14851;51.166;4.760;2023-12-22T13:30:34;9.73;;;1.30;;
27383;SDS011;14851;51.166;4.760;2023-12-22T13:33:06;6.45;;;1.10;;
27383;SDS011;14851;51.166;4.760;2023-12-22T13:35:35;5.57;;;1.13;;
27383;SDS011;14851;51.166;4.760;2023-12-22T13:38:05;7.28;;;1.08;;
27383;SDS011;14851;51.166;4.760;2023-12-22T13:40:32;7.45;;;1.48;;
27383;SDS011;14851;51.166;4.760;2023-12-22T13:42:59;7.10;;;1.60;;
27383;SDS011;14851;51.166;4.760;2023-12-22T13:45:28;7.68;;;1.20;;
27383;SDS011;14851;51.166;4.760;2023-12-22T13:47:55;12.07;;;1.80;;
27383;SDS011;14851;51.166;4.760;2023-12-22T13:50:25;7.90;;;1.57;;
27383;SDS011;14851;51.166;4.760;2023-12-22T13:52:51;6.03;;;1.10;;
27383;SDS011;14851;51.166;4.760;2023-12-22T13:55:19;5.43;;;0.98;;
27383;SDS011;14851;51.166;4.760;2023-12-22T13:57:47;6.87;;;1.33;;
27383;SDS011;14851;51.166;4.760;2023-12-22T14:02:49;6.85;;;1.23;;
27383;SDS011;14851;51.166;4.760;2023-12-22T14:05:19;6.13;;;1.38;;
27383;SDS011;14851;51.166;4.760;2023-12-22T14:07:46;5.60;;;1.27;;
27383;SDS011;14851;51.166;4.760;2023-12-22T14:10:13;7.28;;;1.23;;
27383;SDS011;14851;51.166;4.760;2023-12-22T14:12:40;8.43;;;1.33;;
27383;SDS011;14851;51.166;4.760;2023-12-22T14:15:07;6.30;;;1.10;;
27383;SDS011;14851;51.166;4.760;2023-12-22T14:17:34;7.50;;;1.75;;
27383;SDS011;14851;51.166;4.760;2023-12-22T14:20:00;5.68;;;0.95;;
27383;SDS011;14851;51.166;4.760;2023-12-22T14:22:27;6.85;;;1.40;;
27383;SDS011;14851;51.166;4.760;2023-12-22T14:24:53;8.30;;;1.63;;
27383;SDS011;14851;51.166;4.760;2023-12-22T14:27:26;6.10;;;1.20;;
27383;SDS011;14851;51.166;4.760;2023-12-22T14:29:52;5.90;;;1.33;;
27383;SDS011;14851;51.166;4.760;2023-12-22T14:32:18;6.80;;;1.48;;
27383;SDS011;14851;51.166;4.760;2023-12-22T14:34:45;7.53;;;1.77;;
27383;SDS011;14851;51.166;4.760;2023-12-22T14:37:11;8.23;;;1.75;;
27383;SDS011;14851;51.166;4.760;2023-12-22T14:39:37;7.80;;;1.63;;
27383;SDS011;14851;51.166;4.760;2023-12-22T14:42:04;5.88;;;1.25;;
27383;SDS011;14851;51.166;4.760;2023-12-22T14:44:31;10.57;;;1.70;;
27383;SDS011;14851;51.166;4.760;2023-12-22T14:46:57;7.15;;;1.10;;
27383;SDS011;14851;51.166;4.760;2023-12-22T14:49:26;6.47;;;1.30;;
27383;SDS011;14851;51.166;4.760;2023-12-22T14:51:52;4.35;;;1.05;;
27383;SDS011;14851;51.166;4.760;2023-12-22T14:54:19;8.55;;;1.70;;
27383;SDS011;14851;51.166;4.760;2023-12-22T14:56:48;7.82;;;1.40;;
27383;SDS011;14851;51.166;4.760;2023-12-22T14:59:14;7.43;;;1.35;;
27383;SDS011;14851;51.166;4.760;2023-12-22T15:01:40;8.75;;;1.77;;
27383;SDS011;14851;51.166;4.760;2023-12-22T15:04:07;7.32;;;1.70;;
27383;SDS011;14851;51.166;4.760;2023-12-22T15:06:37;6.60;;;1.52;;